sensor_id;sensor_type;location;lat;lon;timestamp;P1;durP1;ratioP1;P2;durP2;ratioP2
73776;SDS011;62088;50.240;2.696;2023-07-13T00:01:55;14.90;;;2.40;;
73776;SDS011;62088;50.240;2.696;2023-07-13T00:04:23;7.18;;;1.90;;
73776;SDS011;62088;50.240;2.696;2023-07-13T00:06:52;7.80;;;2.28;;
73776;SDS011;62088;50.240;2.696;2023-07-13T00:09:20;10.20;;;2.45;;
73776;SDS011;62088;50.240;2.696;2023-07-13T00:11:53;15.02;;;3.35;;
73776;SDS011;62088;50.240;2.696;2023-07-13T00:14:23;6.70;;;2.00;;
73776;SDS011;62088;50.240;2.696;2023-07-13T00:16:52;7.70;;;2.03;;
73776;SDS011;62088;50.240;2.696;2023-07-13T00:19:19;9.77;;;2.47;;
73776;SDS011;62088;50.240;2.696;2023-07-13T00:21:46;9.77;;;2.25;;
73776;SDS011;62088;50.240;2.696;2023-07-13T00:24:15;8.77;;;2.20;;
73776;SDS011;62088;50.240;2.696;2023-07-13T00:26:45;11.32;;;2.22;;
73776;SDS011;62088;50.240;2.696;2023-07-13T00:29:12;10.55;;;2.53;;
73776;SDS011;62088;50.240;2.696;2023-07-13T00:31:40;11.15;;;2.30;;
73776;SDS011;62088;50.240;2.696;2023-07-13T00:34:07;10.75;;;2.88;;
73776;SDS011;62088;50.240;2.696;2023-07-13T00:36:34;9.98;;;2.50;;
73776;SDS011;62088;50.240;2.696;2023-07-13T00:39:01;11.02;;;2.80;;
73776;SDS011;62088;50.240;2.696;2023-07-13T00:41:30;8.95;;;2.38;;
73776;SDS011;62088;50.240;2.696;2023-07-13T00:43:58;9.25;;;2.42;;
73776;SDS011;62088;50.240;2.696;2023-07-13T00:46:27;7.82;;;2.22;;
73776;SDS011;62088;50.240;2.696;2023-07-13T00:48:59;12.50;;;2.53;;
73776;SDS011;62088;50.240;2.696;2023-07-13T00:54:23;11.27;;;2.00;;
73776;SDS011;62088;50.240;2.696;2023-07-13T00:56:55;10.37;;;2.37;;
73776;SDS011;62088;50.240;2.696;2023-07-13T00:59:25;8.05;;;2.20;;
73776;SDS011;62088;50.240;2.696;2023-07-13T01:01:53;13.05;;;3.03;;
73776;SDS011;62088;50.240;2.696;2023-07-13T01:04:20;7.25;;;2.25;;
73776;SDS011;62088;50.240;2.696;2023-07-13T01:06:49;7.70;;;2.65;;
73776;SDS011;62088;50.240;2.696;2023-07-13T01:09:17;11.45;;;2.63;;
73776;SDS011;62088;50.240;2.696;2023-07-13T01:11:44;9.85;;;2.50;;
73776;SDS011;62088;50.240;2.696;2023-07-13T01:14:11;7.72;;;2.20;;
73776;SDS011;62088;50.240;2.696;2023-07-13T01:16:39;9.05;;;2.63;;
73776;SDS011;62088;50.240;2.696;2023-07-13T01:19:20;8.57;;;2.55;;
73776;SDS011;62088;50.240;2.696;2023-07-13T01:22:06;9.05;;;2.40;;
73776;SDS011;62088;50.240;2.696;2023-07-13T01:24:39;10.20;;;2.40;;
73776;SDS011;62088;50.240;2.696;2023-07-13T01:27:10;7.47;;;2.03;;
73776;SDS011;62088;50.240;2.696;2023-07-13T01:29:39;7.43;;;2.30;;
73776;SDS011;62088;50.240;2.696;2023-07-13T01:32:14;10.63;;;2.20;;
73776;SDS011;62088;50.240;2.696;2023-07-13T01:34:42;9.43;;;2.20;;
73776;SDS011;62088;50.240;2.696;2023-07-13T01:37:11;8.90;;;2.25;;
73776;SDS011;62088;50.240;2.696;2023-07-13T01:39:39;6.28;;;2.10;;
73776;SDS011;62088;50.240;2.696;2023-07-13T01:42:06;9.43;;;2.50;;
73776;SDS011;62088;50.240;2.696;2023-07-13T01:44:33;8.52;;;2.30;;
73776;SDS011;62088;50.240;2.696;2023-07-13T01:47:00;5.82;;;1.80;;
73776;SDS011;62088;50.240;2.696;2023-07-13T01:49:28;7.82;;;2.00;;
73776;SDS011;62088;50.240;2.696;2023-07-13T01:51:55;6.75;;;2.15;;
73776;SDS011;62088;50.240;2.696;2023-07-13T01:54:22;10.65;;;2.78;;
73776;SDS011;62088;50.240;2.696;2023-07-13T01:56:49;8.18;;;2.33;;
73776;SDS011;62088;50.240;2.696;2023-07-13T01:59:17;6.80;;;1.95;;
73776;SDS011;62088;50.240;2.696;2023-07-13T02:01:44;9.63;;;2.38;;
73776;SDS011;62088;50.240;2.696;2023-07-13T02:04:11;13.18;;;2.50;;
73776;SDS011;62088;50.240;2.696;2023-07-13T02:06:38;9.65;;;2.35;;
73776;SDS011;62088;50.240;2.696;2023-07-13T02:09:05;8.00;;;2.00;;
73776;SDS011;62088;50.240;2.696;2023-07-13T02:11:32;8.25;;;2.22;;
73776;SDS011;62088;50.240;2.696;2023-07-13T02:14:00;8.52;;;2.15;;
73776;SDS011;62088;50.240;2.696;2023-07-13T02:16:30;6.60;;;2.03;;
73776;SDS011;62088;50.240;2.696;2023-07-13T02:18:57;6.70;;;1.92;;
73776;SDS011;62088;50.240;2.696;2023-07-13T02:21:24;10.98;;;2.30;;
73776;SDS011;62088;50.240;2.696;2023-07-13T02:23:52;6.70;;;1.95;;
73776;SDS011;62088;50.240;2.696;2023-07-13T02:26:21;9.00;;;2.25;;
73776;SDS011;62088;50.240;2.696;2023-07-13T02:28:48;7.47;;;2.10;;
73776;SDS011;62088;50.240;2.696;2023-07-13T02:31:15;8.35;;;2.38;;
73776;SDS011;62088;50.240;2.696;2023-07-13T02:33:44;8.88;;;2.50;;
73776;SDS011;62088;50.240;2.696;2023-07-13T02:36:12;6.07;;;1.90;;
73776;SDS011;62088;50.240;2.696;2023-07-13T02:38:40;8.52;;;2.08;;
73776;SDS011;62088;50.240;2.696;2023-07-13T02:41:07;10.60;;;2.63;;
73776;SDS011;62088;50.240;2.696;2023-07-13T02:43:36;8.00;;;2.15;;
73776;SDS011;62088;50.240;2.696;2023-07-13T02:46:04;9.20;;;1.98;;
73776;SDS011;62088;50.240;2.696;2023-07-13T02:48:35;6.82;;;2.13;;
73776;SDS011;62088;50.240;2.696;2023-07-13T02:51:03;9.10;;;2.50;;
73776;SDS011;62088;50.240;2.696;2023-07-13T02:53:30;9.93;;;2.10;;
73776;SDS011;62088;50.240;2.696;2023-07-13T02:55:57;6.93;;;2.30;;
73776;SDS011;62088;50.240;2.696;2023-07-13T02:58:24;10.23;;;2.63;;
73776;SDS011;62088;50.240;2.696;2023-07-13T03:00:52;7.93;;;2.25;;
73776;SDS011;62088;50.240;2.696;2023-07-13T03:03:19;8.27;;;2.15;;
73776;SDS011;62088;50.240;2.696;2023-07-13T03:05:47;7.05;;;2.10;;
73776;SDS011;62088;50.240;2.696;2023-07-13T03:08:21;7.70;;;2.25;;
73776;SDS011;62088;50.240;2.696;2023-07-13T03:10:58;8.98;;;2.13;;
73776;SDS011;62088;50.240;2.696;2023-07-13T03:13:32;6.90;;;2.17;;
73776;SDS011;62088;50.240;2.696;2023-07-13T03:16:00;12.23;;;2.42;;
73776;SDS011;62088;50.240;2.696;2023-07-13T03:18:28;6.63;;;1.95;;
73776;SDS011;62088;50.240;2.696;2023-07-13T03:20:59;6.32;;;1.88;;
73776;SDS011;62088;50.240;2.696;2023-07-13T03:23:26;10.68;;;2.78;;
73776;SDS011;62088;50.240;2.696;2023-07-13T03:26:04;6.55;;;1.95;;
73776;SDS011;62088;50.240;2.696;2023-07-13T03:28:34;8.52;;;2.20;;
73776;SDS011;62088;50.240;2.696;2023-07-13T03:31:05;5.97;;;1.80;;
73776;SDS011;62088;50.240;2.696;2023-07-13T03:33:37;6.30;;;1.95;;
73776;SDS011;62088;50.240;2.696;2023-07-13T03:36:06;8.43;;;2.40;;
73776;SDS011;62088;50.240;2.696;2023-07-13T03:38:35;7.68;;;1.95;;
73776;SDS011;62088;50.240;2.696;2023-07-13T03:41:02;10.63;;;1.95;;
73776;SDS011;62088;50.240;2.696;2023-07-13T03:43:30;9.95;;;2.35;;
73776;SDS011;62088;50.240;2.696;2023-07-13T03:45:57;9.82;;;2.35;;
73776;SDS011;62088;50.240;2.696;2023-07-13T03:48:25;9.07;;;2.08;;
73776;SDS011;62088;50.240;2.696;2023-07-13T03:50:51;5.80;;;1.90;;
73776;SDS011;62088;50.240;2.696;2023-07-13T03:53:18;6.55;;;2.00;;
73776;SDS011;62088;50.240;2.696;2023-07-13T03:55:46;9.50;;;2.28;;
73776;SDS011;62088;50.240;2.696;2023-07-13T03:58:27;8.85;;;2.40;;
73776;SDS011;62088;50.240;2.696;2023-07-13T04:01:09;11.48;;;2.30;;
73776;SDS011;62088;50.240;2.696;2023-07-13T04:03:38;6.95;;;2.28;;
73776;SDS011;62088;50.240;2.696;2023-07-13T04:06:06;9.93;;;2.30;;
73776;SDS011;62088;50.240;2.696;2023-07-13T04:08:35;8.32;;;2.38;;
73776;SDS011;62088;50.240;2.696;2023-07-13T04:11:04;10.65;;;2.60;;
73776;SDS011;62088;50.240;2.696;2023-07-13T04:13:31;8.73;;;2.05;;
73776;SDS011;62088;50.240;2.696;2023-07-13T04:15:58;7.40;;;2.00;;
73776;SDS011;62088;50.240;2.696;2023-07-13T04:18:26;5.22;;;1.80;;
73776;SDS011;62088;50.240;2.696;2023-07-13T04:20:53;5.68;;;2.13;;
73776;SDS011;62088;50.240;2.696;2023-07-13T04:23:20;10.70;;;2.50;;
73776;SDS011;62088;50.240;2.696;2023-07-13T04:25:47;4.90;;;1.88;;
73776;SDS011;62088;50.240;2.696;2023-07-13T04:28:20;7.68;;;2.20;;
73776;SDS011;62088;50.240;2.696;2023-07-13T04:30:49;7.93;;;1.80;;
73776;SDS011;62088;50.240;2.696;2023-07-13T04:33:17;9.80;;;2.42;;
73776;SDS011;62088;50.240;2.696;2023-07-13T04:35:44;6.25;;;1.88;;
73776;SDS011;62088;50.240;2.696;2023-07-13T04:38:13;5.57;;;2.00;;
73776;SDS011;62088;50.240;2.696;2023-07-13T04:40:45;6.57;;;2.22;;
73776;SDS011;62088;50.240;2.696;2023-07-13T04:43:12;7.47;;;2.13;;
73776;SDS011;62088;50.240;2.696;2023-07-13T04:45:39;7.05;;;2.03;;
73776;SDS011;62088;50.240;2.696;2023-07-13T04:48:07;5.13;;;1.80;;
73776;SDS011;62088;50.240;2.696;2023-07-13T04:50:37;8.32;;;2.20;;
73776;SDS011;62088;50.240;2.696;2023-07-13T04:53:05;12.27;;;2.65;;
73776;SDS011;62088;50.240;2.696;2023-07-13T04:55:32;6.97;;;1.90;;
73776;SDS011;62088;50.240;2.696;2023-07-13T04:58:00;6.28;;;1.90;;
73776;SDS011;62088;50.240;2.696;2023-07-13T05:00:27;7.65;;;2.22;;
73776;SDS011;62088;50.240;2.696;2023-07-13T05:02:55;6.80;;;2.47;;
73776;SDS011;62088;50.240;2.696;2023-07-13T05:05:24;7.45;;;2.30;;
73776;SDS011;62088;50.240;2.696;2023-07-13T05:07:52;7.95;;;2.05;;
73776;SDS011;62088;50.240;2.696;2023-07-13T05:10:20;8.82;;;2.10;;
73776;SDS011;62088;50.240;2.696;2023-07-13T05:12:47;8.38;;;2.33;;
73776;SDS011;62088;50.240;2.696;2023-07-13T05:15:14;9.05;;;2.17;;
73776;SDS011;62088;50.240;2.696;2023-07-13T05:17:42;7.50;;;2.20;;
73776;SDS011;62088;50.240;2.696;2023-07-13T05:20:09;10.85;;;2.55;;
73776;SDS011;62088;50.240;2.696;2023-07-13T05:22:36;7.95;;;2.53;;
73776;SDS011;62088;50.240;2.696;2023-07-13T05:25:04;6.63;;;2.20;;
73776;SDS011;62088;50.240;2.696;2023-07-13T05:27:33;5.40;;;2.10;;
73776;SDS011;62088;50.240;2.696;2023-07-13T05:30:01;6.82;;;2.40;;
73776;SDS011;62088;50.240;2.696;2023-07-13T05:32:29;8.55;;;2.75;;
73776;SDS011;62088;50.240;2.696;2023-07-13T05:34:56;7.50;;;2.25;;
73776;SDS011;62088;50.240;2.696;2023-07-13T05:37:24;9.90;;;2.80;;
73776;SDS011;62088;50.240;2.696;2023-07-13T05:39:51;7.05;;;2.50;;
73776;SDS011;62088;50.240;2.696;2023-07-13T05:42:18;11.63;;;2.83;;
73776;SDS011;62088;50.240;2.696;2023-07-13T05:44:45;9.80;;;2.67;;
73776;SDS011;62088;50.240;2.696;2023-07-13T05:47:12;10.40;;;3.03;;
73776;SDS011;62088;50.240;2.696;2023-07-13T05:49:40;7.53;;;2.55;;
73776;SDS011;62088;50.240;2.696;2023-07-13T05:52:08;7.78;;;2.50;;
73776;SDS011;62088;50.240;2.696;2023-07-13T05:54:35;7.00;;;2.83;;
73776;SDS011;62088;50.240;2.696;2023-07-13T05:57:02;8.43;;;2.95;;
73776;SDS011;62088;50.240;2.696;2023-07-13T05:59:29;8.85;;;3.05;;
73776;SDS011;62088;50.240;2.696;2023-07-13T06:01:56;11.95;;;3.03;;
73776;SDS011;62088;50.240;2.696;2023-07-13T06:04:23;8.35;;;3.17;;
73776;SDS011;62088;50.240;2.696;2023-07-13T06:06:50;10.40;;;2.92;;
73776;SDS011;62088;50.240;2.696;2023-07-13T06:09:17;10.88;;;3.40;;
73776;SDS011;62088;50.240;2.696;2023-07-13T06:11:44;7.50;;;2.80;;
73776;SDS011;62088;50.240;2.696;2023-07-13T06:14:11;8.27;;;3.00;;
73776;SDS011;62088;50.240;2.696;2023-07-13T06:16:39;8.13;;;2.85;;
73776;SDS011;62088;50.240;2.696;2023-07-13T06:19:07;8.38;;;2.75;;
73776;SDS011;62088;50.240;2.696;2023-07-13T06:21:34;13.07;;;3.58;;
73776;SDS011;62088;50.240;2.696;2023-07-13T06:24:01;7.93;;;2.60;;
73776;SDS011;62088;50.240;2.696;2023-07-13T06:26:29;8.52;;;2.85;;
73776;SDS011;62088;50.240;2.696;2023-07-13T06:28:56;9.18;;;3.53;;
73776;SDS011;62088;50.240;2.696;2023-07-13T06:31:23;12.02;;;3.10;;
73776;SDS011;62088;50.240;2.696;2023-07-13T06:33:50;14.10;;;3.45;;
73776;SDS011;62088;50.240;2.696;2023-07-13T06:36:17;14.25;;;3.08;;
73776;SDS011;62088;50.240;2.696;2023-07-13T06:38:44;14.07;;;3.05;;
73776;SDS011;62088;50.240;2.696;2023-07-13T06:41:11;8.48;;;2.40;;
73776;SDS011;62088;50.240;2.696;2023-07-13T06:43:39;12.57;;;3.25;;
73776;SDS011;62088;50.240;2.696;2023-07-13T06:46:06;9.70;;;3.05;;
73776;SDS011;62088;50.240;2.696;2023-07-13T06:48:34;6.90;;;2.65;;
73776;SDS011;62088;50.240;2.696;2023-07-13T06:51:02;12.38;;;2.97;;
73776;SDS011;62088;50.240;2.696;2023-07-13T06:53:30;7.82;;;2.72;;
73776;SDS011;62088;50.240;2.696;2023-07-13T06:55:57;8.50;;;2.85;;
73776;SDS011;62088;50.240;2.696;2023-07-13T06:58:24;8.18;;;2.90;;
73776;SDS011;62088;50.240;2.696;2023-07-13T07:00:52;9.15;;;2.78;;
73776;SDS011;62088;50.240;2.696;2023-07-13T07:03:19;9.02;;;2.90;;
73776;SDS011;62088;50.240;2.696;2023-07-13T07:05:46;8.20;;;2.75;;
73776;SDS011;62088;50.240;2.696;2023-07-13T07:08:14;10.25;;;2.38;;
73776;SDS011;62088;50.240;2.696;2023-07-13T07:10:41;12.25;;;3.53;;
73776;SDS011;62088;50.240;2.696;2023-07-13T07:13:08;8.40;;;2.45;;
73776;SDS011;62088;50.240;2.696;2023-07-13T07:15:35;13.88;;;3.17;;
73776;SDS011;62088;50.240;2.696;2023-07-13T07:18:03;9.02;;;2.60;;
73776;SDS011;62088;50.240;2.696;2023-07-13T07:20:30;8.77;;;2.42;;
73776;SDS011;62088;50.240;2.696;2023-07-13T07:22:59;6.90;;;2.13;;
73776;SDS011;62088;50.240;2.696;2023-07-13T07:25:26;9.73;;;2.20;;
73776;SDS011;62088;50.240;2.696;2023-07-13T07:27:58;8.75;;;2.30;;
73776;SDS011;62088;50.240;2.696;2023-07-13T07:30:28;8.75;;;2.38;;
73776;SDS011;62088;50.240;2.696;2023-07-13T07:32:58;10.80;;;2.42;;
73776;SDS011;62088;50.240;2.696;2023-07-13T07:35:30;7.60;;;2.50;;
73776;SDS011;62088;50.240;2.696;2023-07-13T07:38:04;11.07;;;2.78;;
73776;SDS011;62088;50.240;2.696;2023-07-13T07:40:31;10.52;;;2.40;;
73776;SDS011;62088;50.240;2.696;2023-07-13T07:43:05;9.90;;;2.38;;
73776;SDS011;62088;50.240;2.696;2023-07-13T07:45:36;9.15;;;2.72;;
73776;SDS011;62088;50.240;2.696;2023-07-13T07:48:05;8.60;;;2.47;;
73776;SDS011;62088;50.240;2.696;2023-07-13T07:50:33;8.68;;;2.70;;
73776;SDS011;62088;50.240;2.696;2023-07-13T07:53:00;7.90;;;2.53;;
73776;SDS011;62088;50.240;2.696;2023-07-13T07:55:28;8.68;;;2.30;;
73776;SDS011;62088;50.240;2.696;2023-07-13T07:57:58;9.23;;;2.85;;
73776;SDS011;62088;50.240;2.696;2023-07-13T08:00:28;9.23;;;2.90;;
73776;SDS011;62088;50.240;2.696;2023-07-13T08:03:18;5.78;;;2.10;;
73776;SDS011;62088;50.240;2.696;2023-07-13T08:05:48;10.20;;;2.65;;
73776;SDS011;62088;50.240;2.696;2023-07-13T08:08:21;7.50;;;2.25;;
73776;SDS011;62088;50.240;2.696;2023-07-13T08:10:48;8.15;;;2.20;;
73776;SDS011;62088;50.240;2.696;2023-07-13T08:13:15;6.63;;;2.38;;
73776;SDS011;62088;50.240;2.696;2023-07-13T08:15:43;10.18;;;2.25;;
73776;SDS011;62088;50.240;2.696;2023-07-13T08:18:10;15.68;;;2.70;;
73776;SDS011;62088;50.240;2.696;2023-07-13T08:20:38;7.63;;;2.40;;
73776;SDS011;62088;50.240;2.696;2023-07-13T08:23:06;14.98;;;3.47;;
73776;SDS011;62088;50.240;2.696;2023-07-13T08:25:35;8.40;;;2.50;;
73776;SDS011;62088;50.240;2.696;2023-07-13T08:28:03;7.63;;;2.40;;
73776;SDS011;62088;50.240;2.696;2023-07-13T08:30:30;6.88;;;2.42;;
73776;SDS011;62088;50.240;2.696;2023-07-13T08:32:57;8.38;;;2.40;;
73776;SDS011;62088;50.240;2.696;2023-07-13T08:35:24;6.25;;;2.05;;
73776;SDS011;62088;50.240;2.696;2023-07-13T08:37:52;11.77;;;2.55;;
73776;SDS011;62088;50.240;2.696;2023-07-13T08:40:19;8.82;;;2.10;;
73776;SDS011;62088;50.240;2.696;2023-07-13T08:42:54;7.25;;;2.30;;
73776;SDS011;62088;50.240;2.696;2023-07-13T08:45:33;11.90;;;2.30;;
73776;SDS011;62088;50.240;2.696;2023-07-13T08:48:18;7.53;;;2.05;;
73776;SDS011;62088;50.240;2.696;2023-07-13T08:53:40;8.18;;;2.30;;
73776;SDS011;62088;50.240;2.696;2023-07-13T08:56:17;8.90;;;2.42;;
73776;SDS011;62088;50.240;2.696;2023-07-13T08:58:48;8.80;;;2.22;;
73776;SDS011;62088;50.240;2.696;2023-07-13T09:04:08;7.80;;;2.28;;
73776;SDS011;62088;50.240;2.696;2023-07-13T09:06:46;7.15;;;2.53;;
73776;SDS011;62088;50.240;2.696;2023-07-13T09:14:55;7.65;;;1.95;;
73776;SDS011;62088;50.240;2.696;2023-07-13T09:17:27;6.18;;;1.83;;
73776;SDS011;62088;50.240;2.696;2023-07-13T09:20:13;4.95;;;1.40;;
73776;SDS011;62088;50.240;2.696;2023-07-13T09:22:44;6.82;;;1.90;;
73776;SDS011;62088;50.240;2.696;2023-07-13T09:25:20;5.90;;;2.00;;
73776;SDS011;62088;50.240;2.696;2023-07-13T09:27:59;6.15;;;1.52;;
73776;SDS011;62088;50.240;2.696;2023-07-13T09:33:30;6.82;;;1.85;;
73776;SDS011;62088;50.240;2.696;2023-07-13T09:35:58;5.57;;;2.17;;
73776;SDS011;62088;50.240;2.696;2023-07-13T09:38:28;7.60;;;2.05;;
73776;SDS011;62088;50.240;2.696;2023-07-13T09:41:02;6.28;;;1.55;;
73776;SDS011;62088;50.240;2.696;2023-07-13T09:44:00;7.95;;;1.90;;
73776;SDS011;62088;50.240;2.696;2023-07-13T09:46:35;7.13;;;1.92;;
73776;SDS011;62088;50.240;2.696;2023-07-13T09:49:03;6.63;;;1.98;;
73776;SDS011;62088;50.240;2.696;2023-07-13T09:51:30;4.57;;;1.58;;
73776;SDS011;62088;50.240;2.696;2023-07-13T09:53:57;4.78;;;1.42;;
73776;SDS011;62088;50.240;2.696;2023-07-13T09:56:28;4.80;;;1.48;;
73776;SDS011;62088;50.240;2.696;2023-07-13T09:58:56;10.45;;;2.22;;
73776;SDS011;62088;50.240;2.696;2023-07-13T10:01:34;5.78;;;1.60;;
73776;SDS011;62088;50.240;2.696;2023-07-13T10:04:11;9.35;;;1.92;;
73776;SDS011;62088;50.240;2.696;2023-07-13T10:06:40;6.55;;;1.77;;
73776;SDS011;62088;50.240;2.696;2023-07-13T10:09:09;5.00;;;1.55;;
73776;SDS011;62088;50.240;2.696;2023-07-13T10:11:39;3.45;;;1.35;;
73776;SDS011;62088;50.240;2.696;2023-07-13T10:14:13;5.30;;;1.23;;
73776;SDS011;62088;50.240;2.696;2023-07-13T10:16:43;3.50;;;1.25;;
73776;SDS011;62088;50.240;2.696;2023-07-13T10:19:19;7.60;;;2.45;;
73776;SDS011;62088;50.240;2.696;2023-07-13T10:21:57;5.13;;;1.48;;
73776;SDS011;62088;50.240;2.696;2023-07-13T10:24:31;5.22;;;1.75;;
73776;SDS011;62088;50.240;2.696;2023-07-13T10:29:48;4.65;;;1.45;;
73776;SDS011;62088;50.240;2.696;2023-07-13T10:32:40;6.38;;;1.73;;
73776;SDS011;62088;50.240;2.696;2023-07-13T10:35:11;4.47;;;1.50;;
73776;SDS011;62088;50.240;2.696;2023-07-13T10:37:53;6.57;;;1.83;;
73776;SDS011;62088;50.240;2.696;2023-07-13T10:40:43;6.93;;;1.73;;
73776;SDS011;62088;50.240;2.696;2023-07-13T10:43:28;4.88;;;1.60;;
73776;SDS011;62088;50.240;2.696;2023-07-13T10:45:59;9.07;;;1.70;;
73776;SDS011;62088;50.240;2.696;2023-07-13T10:48:28;5.85;;;1.67;;
73776;SDS011;62088;50.240;2.696;2023-07-13T10:50:58;4.90;;;1.50;;
73776;SDS011;62088;50.240;2.696;2023-07-13T10:53:28;4.53;;;1.60;;
73776;SDS011;62088;50.240;2.696;2023-07-13T10:56:00;4.07;;;1.55;;
73776;SDS011;62088;50.240;2.696;2023-07-13T10:58:39;6.22;;;1.60;;
73776;SDS011;62088;50.240;2.696;2023-07-13T11:06:39;4.53;;;1.30;;
73776;SDS011;62088;50.240;2.696;2023-07-13T11:11:59;5.95;;;1.27;;
73776;SDS011;62088;50.240;2.696;2023-07-13T11:15:33;3.55;;;1.15;;
73776;SDS011;62088;50.240;2.696;2023-07-13T11:17:38;4.40;;;1.40;;
73776;SDS011;62088;50.240;2.696;2023-07-13T11:22:51;3.92;;;1.60;;
73776;SDS011;62088;50.240;2.696;2023-07-13T11:25:33;6.07;;;1.40;;
73776;SDS011;62088;50.240;2.696;2023-07-13T11:28:05;4.50;;;1.30;;
73776;SDS011;62088;50.240;2.696;2023-07-13T11:30:46;3.95;;;1.27;;
73776;SDS011;62088;50.240;2.696;2023-07-13T11:33:18;2.75;;;1.17;;
73776;SDS011;62088;50.240;2.696;2023-07-13T11:38:22;8.52;;;1.90;;
73776;SDS011;62088;50.240;2.696;2023-07-13T11:43:33;4.93;;;1.85;;
73776;SDS011;62088;50.240;2.696;2023-07-13T11:49:06;2.75;;;1.20;;
73776;SDS011;62088;50.240;2.696;2023-07-13T11:51:34;4.10;;;1.40;;
73776;SDS011;62088;50.240;2.696;2023-07-13T11:54:24;4.18;;;1.35;;
73776;SDS011;62088;50.240;2.696;2023-07-13T11:56:55;11.70;;;2.83;;
73776;SDS011;62088;50.240;2.696;2023-07-13T12:01:55;3.80;;;1.33;;
73776;SDS011;62088;50.240;2.696;2023-07-13T12:04:25;4.30;;;1.50;;
73776;SDS011;62088;50.240;2.696;2023-07-13T12:06:58;4.68;;;1.45;;
73776;SDS011;62088;50.240;2.696;2023-07-13T12:09:32;3.33;;;1.10;;
73776;SDS011;62088;50.240;2.696;2023-07-13T12:12:00;3.33;;;1.30;;
73776;SDS011;62088;50.240;2.696;2023-07-13T12:14:27;3.85;;;1.38;;
73776;SDS011;62088;50.240;2.696;2023-07-13T12:16:55;7.68;;;1.40;;
73776;SDS011;62088;50.240;2.696;2023-07-13T12:19:23;3.08;;;1.00;;
73776;SDS011;62088;50.240;2.696;2023-07-13T12:21:54;3.42;;;1.30;;
73776;SDS011;62088;50.240;2.696;2023-07-13T12:24:24;4.10;;;1.17;;
73776;SDS011;62088;50.240;2.696;2023-07-13T12:26:53;3.47;;;1.33;;
73776;SDS011;62088;50.240;2.696;2023-07-13T12:29:29;4.32;;;1.27;;
73776;SDS011;62088;50.240;2.696;2023-07-13T12:31:57;3.20;;;1.10;;
73776;SDS011;62088;50.240;2.696;2023-07-13T12:34:25;4.60;;;1.40;;
73776;SDS011;62088;50.240;2.696;2023-07-13T12:39:37;3.92;;;1.45;;
73776;SDS011;62088;50.240;2.696;2023-07-13T12:42:20;4.20;;;1.42;;
73776;SDS011;62088;50.240;2.696;2023-07-13T12:47:50;4.00;;;1.15;;
73776;SDS011;62088;50.240;2.696;2023-07-13T12:50:34;3.58;;;1.30;;
73776;SDS011;62088;50.240;2.696;2023-07-13T12:53:05;4.40;;;1.35;;
73776;SDS011;62088;50.240;2.696;2023-07-13T12:55:42;3.80;;;1.27;;
73776;SDS011;62088;50.240;2.696;2023-07-13T12:58:56;3.33;;;1.13;;
73776;SDS011;62088;50.240;2.696;2023-07-13T13:01:05;2.72;;;1.13;;
73776;SDS011;62088;50.240;2.696;2023-07-13T13:03:44;4.22;;;1.23;;
73776;SDS011;62088;50.240;2.696;2023-07-13T13:08:45;4.65;;;1.20;;
73776;SDS011;62088;50.240;2.696;2023-07-13T13:11:15;3.33;;;1.27;;
73776;SDS011;62088;50.240;2.696;2023-07-13T13:13:43;3.75;;;1.25;;
73776;SDS011;62088;50.240;2.696;2023-07-13T13:16:11;3.50;;;1.25;;
73776;SDS011;62088;50.240;2.696;2023-07-13T13:18:50;2.80;;;1.10;;
73776;SDS011;62088;50.240;2.696;2023-07-13T13:21:20;3.45;;;1.35;;
73776;SDS011;62088;50.240;2.696;2023-07-13T13:23:47;6.10;;;1.48;;
73776;SDS011;62088;50.240;2.696;2023-07-13T13:26:16;5.70;;;1.52;;
73776;SDS011;62088;50.240;2.696;2023-07-13T13:28:43;2.95;;;1.10;;
73776;SDS011;62088;50.240;2.696;2023-07-13T13:31:11;3.50;;;1.42;;
73776;SDS011;62088;50.240;2.696;2023-07-13T13:33:40;4.50;;;1.70;;
73776;SDS011;62088;50.240;2.696;2023-07-13T13:36:17;3.90;;;1.38;;
73776;SDS011;62088;50.240;2.696;2023-07-13T13:38:45;3.55;;;1.25;;
73776;SDS011;62088;50.240;2.696;2023-07-13T13:41:14;14.60;;;1.60;;
73776;SDS011;62088;50.240;2.696;2023-07-13T13:43:41;4.38;;;1.40;;
73776;SDS011;62088;50.240;2.696;2023-07-13T13:46:15;4.78;;;1.40;;
73776;SDS011;62088;50.240;2.696;2023-07-13T13:48:47;4.50;;;1.33;;
73776;SDS011;62088;50.240;2.696;2023-07-13T13:51:16;4.03;;;1.20;;
73776;SDS011;62088;50.240;2.696;2023-07-13T13:53:45;3.80;;;1.20;;
73776;SDS011;62088;50.240;2.696;2023-07-13T13:56:14;3.00;;;1.02;;
73776;SDS011;62088;50.240;2.696;2023-07-13T13:58:43;4.82;;;1.25;;
73776;SDS011;62088;50.240;2.696;2023-07-13T14:01:16;3.38;;;1.30;;
73776;SDS011;62088;50.240;2.696;2023-07-13T14:03:45;3.80;;;1.33;;
73776;SDS011;62088;50.240;2.696;2023-07-13T14:06:15;5.05;;;1.38;;
73776;SDS011;62088;50.240;2.696;2023-07-13T14:08:42;3.35;;;1.17;;
73776;SDS011;62088;50.240;2.696;2023-07-13T14:11:14;6.95;;;1.73;;
73776;SDS011;62088;50.240;2.696;2023-07-13T14:13:44;5.13;;;1.38;;
73776;SDS011;62088;50.240;2.696;2023-07-13T14:16:16;4.65;;;1.30;;
73776;SDS011;62088;50.240;2.696;2023-07-13T14:18:46;4.05;;;1.35;;
73776;SDS011;62088;50.240;2.696;2023-07-13T14:21:14;2.85;;;1.08;;
73776;SDS011;62088;50.240;2.696;2023-07-13T14:23:44;3.45;;;1.27;;
73776;SDS011;62088;50.240;2.696;2023-07-13T14:26:13;3.22;;;1.10;;
73776;SDS011;62088;50.240;2.696;2023-07-13T14:28:46;5.57;;;1.30;;
73776;SDS011;62088;50.240;2.696;2023-07-13T14:31:16;3.00;;;1.10;;
73776;SDS011;62088;50.240;2.696;2023-07-13T14:33:43;4.75;;;1.40;;
73776;SDS011;62088;50.240;2.696;2023-07-13T14:36:19;4.13;;;1.30;;
73776;SDS011;62088;50.240;2.696;2023-07-13T14:38:56;3.38;;;1.30;;
73776;SDS011;62088;50.240;2.696;2023-07-13T14:41:24;4.65;;;1.25;;
73776;SDS011;62088;50.240;2.696;2023-07-13T14:46:47;3.38;;;1.10;;
73776;SDS011;62088;50.240;2.696;2023-07-13T14:52:20;4.50;;;1.33;;
73776;SDS011;62088;50.240;2.696;2023-07-13T14:54:53;4.35;;;1.45;;
73776;SDS011;62088;50.240;2.696;2023-07-13T14:57:21;4.05;;;1.23;;
73776;SDS011;62088;50.240;2.696;2023-07-13T14:59:48;4.00;;;1.30;;
73776;SDS011;62088;50.240;2.696;2023-07-13T15:02:23;3.60;;;1.20;;
73776;SDS011;62088;50.240;2.696;2023-07-13T15:05:00;3.67;;;1.05;;
73776;SDS011;62088;50.240;2.696;2023-07-13T15:07:28;4.80;;;1.42;;
73776;SDS011;62088;50.240;2.696;2023-07-13T15:09:55;4.22;;;1.20;;
73776;SDS011;62088;50.240;2.696;2023-07-13T15:12:22;3.95;;;1.38;;
73776;SDS011;62088;50.240;2.696;2023-07-13T15:17:51;4.38;;;1.42;;
73776;SDS011;62088;50.240;2.696;2023-07-13T15:20:21;4.00;;;1.30;;
73776;SDS011;62088;50.240;2.696;2023-07-13T15:22:59;4.90;;;1.10;;
73776;SDS011;62088;50.240;2.696;2023-07-13T15:25:27;3.17;;;1.10;;
73776;SDS011;62088;50.240;2.696;2023-07-13T15:27:57;3.50;;;1.05;;
73776;SDS011;62088;50.240;2.696;2023-07-13T15:33:25;3.40;;;1.17;;
73776;SDS011;62088;50.240;2.696;2023-07-13T15:35:55;4.13;;;1.20;;
73776;SDS011;62088;50.240;2.696;2023-07-13T15:38:28;3.33;;;1.27;;
73776;SDS011;62088;50.240;2.696;2023-07-13T15:40:57;3.72;;;1.20;;
73776;SDS011;62088;50.240;2.696;2023-07-13T15:43:25;4.68;;;1.40;;
73776;SDS011;62088;50.240;2.696;2023-07-13T15:45:52;2.45;;;0.93;;
73776;SDS011;62088;50.240;2.696;2023-07-13T15:48:23;3.95;;;1.15;;
73776;SDS011;62088;50.240;2.696;2023-07-13T15:50:54;3.50;;;1.20;;
73776;SDS011;62088;50.240;2.696;2023-07-13T15:53:31;3.97;;;1.10;;
73776;SDS011;62088;50.240;2.696;2023-07-13T15:56:00;3.92;;;1.20;;
73776;SDS011;62088;50.240;2.696;2023-07-13T15:58:28;4.05;;;1.40;;
73776;SDS011;62088;50.240;2.696;2023-07-13T16:00:55;3.55;;;1.20;;
73776;SDS011;62088;50.240;2.696;2023-07-13T16:03:23;2.88;;;1.10;;
73776;SDS011;62088;50.240;2.696;2023-07-13T16:05:51;3.30;;;1.15;;